createdAt,value
2023-03-08T00:01:26.555Z,2.00
2023-03-08T00:03:55.385Z,2.00
2023-03-08T00:06:24.528Z,2.10
2023-03-08T00:08:55.333Z,1.90
2023-03-08T00:11:21.995Z,1.90
2023-03-08T00:13:48.661Z,1.80
2023-03-08T00:16:15.393Z,1.90
2023-03-08T00:18:42.887Z,2.00
2023-03-08T00:21:17.012Z,2.00
2023-03-08T00:23:44.628Z,2.00
2023-03-08T00:26:12.685Z,2.00
2023-03-08T00:28:39.837Z,2.00
2023-03-08T00:31:09.395Z,2.10
2023-03-08T00:33:36.530Z,2.10
2023-03-08T00:36:05.294Z,2.00
2023-03-08T00:38:34.796Z,1.90
2023-03-08T00:41:02.419Z,1.80
2023-03-08T00:43:31.316Z,1.70
2023-03-08T00:45:58.435Z,1.80
2023-03-08T00:48:25.285Z,1.80
2023-03-08T00:50:52.643Z,1.90
2023-03-08T00:53:19.747Z,1.80
2023-03-08T00:55:55.265Z,1.80
2023-03-08T00:58:24.533Z,1.90
2023-03-08T01:00:52.018Z,1.90
2023-03-08T01:03:19.513Z,1.90
2023-03-08T01:05:49.517Z,1.80
2023-03-08T01:08:17.163Z,1.80
2023-03-08T01:10:59.104Z,1.90
2023-03-08T01:13:36.155Z,1.80
2023-03-08T01:16:03.147Z,1.70
2023-03-08T01:18:30.713Z,1.70
2023-03-08T01:21:04.936Z,1.80
2023-03-08T01:23:32.599Z,1.90
2023-03-08T01:26:15.107Z,1.90
2023-03-08T01:28:42.764Z,1.80
2023-03-08T01:31:13.433Z,1.80
2023-03-08T01:33:42.097Z,1.80
2023-03-08T01:36:11.564Z,1.90
2023-03-08T01:38:38.625Z,1.90
2023-03-08T01:41:07.848Z,1.80
2023-03-08T01:43:37.077Z,1.70
2023-03-08T01:46:07.638Z,1.80
2023-03-08T01:48:43.849Z,1.80
2023-03-08T01:51:20.223Z,1.80
2023-03-08T01:53:47.501Z,1.80
2023-03-08T01:56:17.526Z,1.80
2023-03-08T01:58:47.254Z,1.90
2023-03-08T02:01:14.810Z,1.90
2023-03-08T02:03:42.079Z,1.90
2023-03-08T02:06:09.546Z,1.80
2023-03-08T02:08:36.533Z,1.80
2023-03-08T02:11:03.390Z,1.80
2023-03-08T02:13:31.167Z,1.80
2023-03-08T02:16:00.749Z,1.80
2023-03-08T02:18:28.211Z,1.90
2023-03-08T02:20:54.930Z,1.90
2023-03-08T02:23:24.156Z,1.90
2023-03-08T02:26:00.449Z,1.90
2023-03-08T02:28:28.556Z,1.90
2023-03-08T02:30:55.897Z,1.90
2023-03-08T02:33:23.100Z,1.90
2023-03-08T02:35:50.394Z,1.90
2023-03-08T02:38:18.999Z,1.70
2023-03-08T02:40:46.191Z,1.80
2023-03-08T02:43:13.489Z,1.90
2023-03-08T02:45:40.412Z,1.80
2023-03-08T02:48:08.865Z,1.90
2023-03-08T02:50:36.592Z,2.00
2023-03-08T02:53:04.379Z,1.90
2023-03-08T02:55:35.969Z,2.00
2023-03-08T02:58:07.447Z,1.90
2023-03-08T03:00:34.615Z,1.90
2023-03-08T03:03:01.864Z,2.00
2023-03-08T03:05:28.670Z,2.00
2023-03-08T03:07:58.590Z,2.00
2023-03-08T03:10:27.244Z,1.90
2023-03-08T03:12:54.333Z,1.90
2023-03-08T03:15:25.142Z,2.00
2023-03-08T03:17:56.723Z,2.00
2023-03-08T03:20:23.561Z,1.90
2023-03-08T03:22:50.258Z,1.80
2023-03-08T03:25:19.398Z,1.70
2023-03-08T03:27:47.657Z,1.70
2023-03-08T03:30:16.153Z,1.70
2023-03-08T03:32:43.889Z,1.70
2023-03-08T03:35:11.396Z,1.80
2023-03-08T03:37:38.292Z,1.80
2023-03-08T03:40:06.062Z,1.70
2023-03-08T03:42:32.897Z,1.70
2023-03-08T03:45:06.550Z,1.80
2023-03-08T03:47:33.986Z,1.80
2023-03-08T03:50:04.238Z,1.70
2023-03-08T03:52:39.641Z,1.70
2023-03-08T03:55:07.170Z,1.80
2023-03-08T03:57:35.292Z,1.70
2023-03-08T04:00:02.340Z,1.80
2023-03-08T04:02:29.347Z,1.90
2023-03-08T04:04:58.916Z,1.70
2023-03-08T04:07:29.281Z,1.80
2023-03-08T04:09:58.369Z,1.80
2023-03-08T04:12:25.544Z,1.80
2023-03-08T04:14:53.706Z,1.90
2023-03-08T04:17:21.400Z,1.80
2023-03-08T04:19:51.756Z,1.80
2023-03-08T04:22:19.759Z,1.80
2023-03-08T04:24:57.275Z,1.80
2023-03-08T04:27:35.955Z,1.70
2023-03-08T04:30:03.281Z,1.70
2023-03-08T04:32:34.873Z,1.80
2023-03-08T04:35:02.384Z,1.70
2023-03-08T04:37:31.344Z,1.70
2023-03-08T04:40:09.175Z,1.80
2023-03-08T04:42:41.208Z,1.70
2023-03-08T04:45:10.571Z,1.70
2023-03-08T04:47:37.392Z,1.70
2023-03-08T04:50:04.440Z,1.70
2023-03-08T04:52:32.519Z,1.60
2023-03-08T04:54:59.830Z,1.60
2023-03-08T04:57:27.589Z,1.60
2023-03-08T04:59:57.145Z,1.60
2023-03-08T05:02:23.961Z,1.60
2023-03-08T05:04:51.058Z,1.60
2023-03-08T05:07:18.087Z,1.60
2023-03-08T05:09:45.917Z,1.60
2023-03-08T05:12:13.536Z,1.60
2023-03-08T05:14:48.900Z,1.60
2023-03-08T05:17:15.594Z,1.60
2023-03-08T05:19:42.390Z,1.60
2023-03-08T05:22:10.538Z,1.70
2023-03-08T05:24:42.924Z,1.60
2023-03-08T05:27:12.189Z,1.50
2023-03-08T05:29:39.103Z,1.50
2023-03-08T05:32:06.617Z,1.50
2023-03-08T05:34:34.249Z,1.50
2023-03-08T05:37:03.131Z,1.50
2023-03-08T05:39:31.811Z,1.50
2023-03-08T05:42:32.295Z,1.50
2023-03-08T05:44:59.916Z,1.50
2023-03-08T05:47:30.679Z,1.50
2023-03-08T05:49:57.473Z,1.40
2023-03-08T05:52:24.161Z,1.40
2023-03-08T05:54:51.191Z,1.30
2023-03-08T05:57:19.936Z,1.20
2023-03-08T05:59:48.543Z,1.30
2023-03-08T06:02:18.548Z,1.40
2023-03-08T06:04:49.067Z,1.40
2023-03-08T06:07:19.173Z,1.40
2023-03-08T06:09:51.712Z,1.40
2023-03-08T06:12:18.440Z,1.40
2023-03-08T06:14:48.614Z,1.30
2023-03-08T06:17:18.227Z,1.30
2023-03-08T06:19:48.026Z,1.30
2023-03-08T06:22:18.615Z,1.30
2023-03-08T06:24:49.514Z,1.30
2023-03-08T06:27:20.209Z,1.30
2023-03-08T06:29:48.967Z,1.30
2023-03-08T06:32:16.160Z,1.30
2023-03-08T06:34:43.283Z,1.30
2023-03-08T06:37:11.134Z,1.20
2023-03-08T06:39:37.810Z,1.20
2023-03-08T06:42:06.051Z,1.20
2023-03-08T06:44:32.745Z,1.20
2023-03-08T06:46:59.441Z,1.20
2023-03-08T06:49:26.149Z,1.20
2023-03-08T06:51:53.501Z,1.20
2023-03-08T06:54:21.856Z,1.10
2023-03-08T06:56:48.762Z,1.10
2023-03-08T06:59:15.724Z,1.10
2023-03-08T07:01:42.430Z,1.10
2023-03-08T07:04:09.214Z,1.10
2023-03-08T07:06:36.030Z,1.10
2023-03-08T07:09:02.927Z,1.10
2023-03-08T07:11:31.308Z,1.10
2023-03-08T07:13:59.283Z,1.10
2023-03-08T07:16:25.947Z,1.10
2023-03-08T07:18:52.929Z,1.10
2023-03-08T07:21:19.607Z,1.10
2023-03-08T07:23:46.349Z,1.10
2023-03-08T07:26:13.063Z,1.10
2023-03-08T07:28:39.976Z,1.10
2023-03-08T07:31:09.547Z,1.10
2023-03-08T07:33:36.214Z,1.10
2023-03-08T07:36:03.441Z,1.20
2023-03-08T07:38:30.494Z,1.20
2023-03-08T07:40:57.583Z,1.20
2023-03-08T07:43:24.561Z,1.30
2023-03-08T07:46:01.305Z,1.20
2023-03-08T07:48:28.834Z,1.30
2023-03-08T07:50:55.781Z,1.30
2023-03-08T07:53:22.530Z,1.30
2023-03-08T07:55:49.183Z,1.30
2023-03-08T07:58:15.931Z,1.30
2023-03-08T08:00:42.644Z,1.40
2023-03-08T08:03:09.369Z,1.40
2023-03-08T08:05:36.569Z,1.50
2023-03-08T08:08:03.637Z,1.50
2023-03-08T08:10:30.319Z,3.80
2023-03-08T08:12:56.992Z,3.30
2023-03-08T08:15:25.623Z,2.80
2023-03-08T08:17:52.751Z,2.40
2023-03-08T08:20:19.609Z,2.20
2023-03-08T08:22:46.248Z,2.10
2023-03-08T08:25:13.101Z,2.00
2023-03-08T08:27:40.119Z,2.00
2023-03-08T08:30:07.627Z,2.00
2023-03-08T08:32:35.300Z,1.90
2023-03-08T08:35:02.146Z,2.00
2023-03-08T08:37:30.619Z,2.10
2023-03-08T08:39:57.368Z,2.10
2023-03-08T08:42:24.160Z,2.20
2023-03-08T08:44:52.960Z,2.10
2023-03-08T08:47:19.700Z,2.30
2023-03-08T08:49:46.389Z,5.30
2023-03-08T08:52:13.066Z,4.50
2023-03-08T08:54:40.086Z,4.00
2023-03-08T08:57:07.212Z,3.50
2023-03-08T08:59:34.142Z,5.30
2023-03-08T09:02:01.115Z,5.70
2023-03-08T09:04:27.902Z,4.80
2023-03-08T09:06:54.840Z,4.10
2023-03-08T09:09:21.481Z,3.70
2023-03-08T09:11:54.689Z,3.30
2023-03-08T09:14:22.859Z,3.00
2023-03-08T09:16:49.678Z,2.90
2023-03-08T09:19:16.446Z,2.80
2023-03-08T09:21:43.195Z,2.70
2023-03-08T09:24:12.043Z,2.60
2023-03-08T09:26:39.010Z,2.60
2023-03-08T09:29:07.235Z,2.60
2023-03-08T09:31:36.997Z,2.60
2023-03-08T09:34:09.219Z,2.60
2023-03-08T09:36:39.502Z,2.60
2023-03-08T09:39:08.798Z,2.60
2023-03-08T09:41:48.942Z,2.60
2023-03-08T09:44:43.913Z,2.70
2023-03-08T09:47:32.282Z,2.80
2023-03-08T09:50:13.007Z,2.90
2023-03-08T09:52:52.131Z,3.00
2023-03-08T09:55:30.369Z,2.90
2023-03-08T09:58:16.947Z,3.00
2023-03-08T10:00:44.804Z,3.00
2023-03-08T10:03:46.813Z,3.10
2023-03-08T10:06:33.769Z,3.00
2023-03-08T10:09:07.975Z,3.00
2023-03-08T10:11:58.078Z,3.00
2023-03-08T10:14:32.541Z,3.00
2023-03-08T10:17:11.702Z,3.10
2023-03-08T10:20:01.502Z,3.00
2023-03-08T10:22:30.473Z,3.10
2023-03-08T10:24:59.923Z,3.30
2023-03-08T10:27:29.066Z,3.30
2023-03-08T10:29:59.092Z,3.30
2023-03-08T10:32:27.414Z,3.40
2023-03-08T10:35:05.213Z,3.40
2023-03-08T10:37:33.676Z,3.30
2023-03-08T10:40:05.398Z,3.40
2023-03-08T10:42:33.489Z,3.50
2023-03-08T10:45:14.112Z,3.40
2023-03-08T10:47:40.890Z,3.40
2023-03-08T10:50:20.853Z,3.40
2023-03-08T10:52:49.378Z,3.30
2023-03-08T10:55:28.104Z,3.50
2023-03-08T10:58:00.832Z,3.50
2023-03-08T11:00:36.512Z,3.40
2023-03-08T11:03:18.228Z,3.40
2023-03-08T11:06:01.352Z,3.60
2023-03-08T11:08:50.734Z,3.50
2023-03-08T11:11:17.458Z,3.40
2023-03-08T11:13:47.023Z,3.50
2023-03-08T11:16:36.840Z,3.50
2023-03-08T11:19:25.215Z,3.50
2023-03-08T11:22:19.767Z,3.50
2023-03-08T11:24:52.230Z,3.60
2023-03-08T11:27:25.325Z,3.50
2023-03-08T11:30:20.042Z,3.60
2023-03-08T11:33:05.534Z,4.50
2023-03-08T11:36:02.436Z,4.40
2023-03-08T11:38:31.786Z,4.20
2023-03-08T11:41:19.436Z,3.90
2023-03-08T11:44:18.974Z,3.90
2023-03-08T11:46:56.236Z,3.90
2023-03-08T11:49:51.074Z,3.90
2023-03-08T11:52:17.718Z,3.90
2023-03-08T11:55:07.389Z,3.80
2023-03-08T11:57:42.854Z,3.70
2023-03-08T12:00:50.402Z,3.80
2023-03-08T12:03:20.349Z,3.90
2023-03-08T12:05:57.664Z,3.90
2023-03-08T12:08:31.611Z,3.90
2023-03-08T12:11:10.176Z,4.00
2023-03-08T12:13:38.298Z,4.10
2023-03-08T12:16:30.723Z,4.20
2023-03-08T12:19:21.467Z,5.20
2023-03-08T12:22:04.618Z,4.80
2023-03-08T12:24:31.236Z,4.60
2023-03-08T12:27:24.337Z,4.60
2023-03-08T12:30:19.938Z,4.60
2023-03-08T12:32:48.098Z,4.50
2023-03-08T12:35:28.175Z,4.30
2023-03-08T12:38:01.203Z,4.30
2023-03-08T12:40:49.546Z,4.20
2023-03-08T12:43:19.249Z,4.20
2023-03-08T12:45:48.581Z,4.20
2023-03-08T12:48:20.905Z,4.40
2023-03-08T12:50:53.440Z,4.40
2023-03-08T12:53:37.424Z,4.40
2023-03-08T12:56:25.140Z,4.30
2023-03-08T12:58:56.295Z,4.30
2023-03-08T13:01:31.173Z,4.40
2023-03-08T13:03:58.369Z,4.50
2023-03-08T13:06:27.827Z,4.50
2023-03-08T13:09:24.569Z,4.50
2023-03-08T13:12:13.685Z,4.30
2023-03-08T13:15:03.712Z,4.50
2023-03-08T13:17:39.346Z,4.50
2023-03-08T13:20:20.904Z,4.50
2023-03-08T13:23:08.255Z,4.60
2023-03-08T13:25:35.015Z,4.60
2023-03-08T13:28:09.077Z,4.60
2023-03-08T13:30:42.224Z,4.60
2023-03-08T13:33:14.170Z,4.60
2023-03-08T13:35:40.863Z,4.60
2023-03-08T13:38:07.693Z,6.20
2023-03-08T13:40:35.596Z,7.10
2023-03-08T13:43:10.671Z,6.40
2023-03-08T13:45:37.576Z,5.80
2023-03-08T13:48:08.719Z,5.60
2023-03-08T13:50:38.628Z,5.40
2023-03-08T13:53:14.627Z,5.10
2023-03-08T13:55:46.452Z,5.00
2023-03-08T13:58:35.208Z,5.00
2023-03-08T14:01:03.970Z,4.80
2023-03-08T14:03:32.839Z,4.80
2023-03-08T14:05:59.808Z,4.80
2023-03-08T14:08:27.738Z,4.80
2023-03-08T14:10:57.702Z,4.80
2023-03-08T14:13:34.214Z,4.70
2023-03-08T14:16:04.229Z,4.80
2023-03-08T14:18:37.508Z,4.60
2023-03-08T14:21:13.611Z,4.70
2023-03-08T14:23:45.511Z,4.80
2023-03-08T14:26:24.332Z,4.80
2023-03-08T14:29:03.884Z,4.80
2023-03-08T14:31:30.959Z,4.90
2023-03-08T14:34:03.714Z,4.90
2023-03-08T14:36:32.958Z,4.80
2023-03-08T14:39:00.179Z,4.90
2023-03-08T14:41:36.250Z,4.70
2023-03-08T14:44:04.652Z,4.80
2023-03-08T14:46:32.469Z,4.80
2023-03-08T14:49:02.223Z,4.80
2023-03-08T14:51:42.330Z,4.80
2023-03-08T14:54:35.909Z,4.90
2023-03-08T14:57:24.503Z,4.80
2023-03-08T14:59:52.300Z,4.80
2023-03-08T15:02:19.468Z,4.80
2023-03-08T15:04:46.577Z,4.80
2023-03-08T15:07:22.267Z,4.60
2023-03-08T15:09:50.336Z,4.60
2023-03-08T15:12:18.250Z,4.60
2023-03-08T15:14:45.901Z,4.50
2023-03-08T15:17:12.649Z,4.50
2023-03-08T15:19:39.326Z,4.50
2023-03-08T15:22:06.607Z,4.50
2023-03-08T15:24:33.968Z,4.50
2023-03-08T15:27:00.614Z,4.60
2023-03-08T15:29:34.414Z,4.50
2023-03-08T15:32:01.066Z,4.50
2023-03-08T15:34:28.587Z,4.50
2023-03-08T15:36:55.636Z,4.50
2023-03-08T15:39:22.680Z,4.50
2023-03-08T15:41:49.509Z,4.30
2023-03-08T15:44:16.258Z,4.30
2023-03-08T15:46:43.147Z,4.30
2023-03-08T15:49:10.824Z,4.30
2023-03-08T15:51:37.744Z,4.30
2023-03-08T15:54:05.510Z,4.30
2023-03-08T15:56:32.277Z,4.30
2023-03-08T15:58:59.083Z,4.30
2023-03-08T16:01:27.689Z,4.40
2023-03-08T16:03:56.689Z,4.40
2023-03-08T16:06:23.983Z,4.50
2023-03-08T16:08:50.887Z,4.50
2023-03-08T16:11:22.083Z,4.50
2023-03-08T16:13:52.743Z,4.50
2023-03-08T16:16:20.596Z,4.50
2023-03-08T16:18:48.604Z,4.50
2023-03-08T16:21:15.571Z,4.50
2023-03-08T16:23:42.735Z,4.50
2023-03-08T16:26:17.027Z,4.50
2023-03-08T16:28:46.811Z,4.50
2023-03-08T16:31:14.546Z,4.40
2023-03-08T16:33:41.402Z,4.40
2023-03-08T16:36:08.179Z,4.50
2023-03-08T16:38:34.867Z,4.40
2023-03-08T16:41:12.346Z,4.50
2023-03-08T16:43:46.883Z,4.50
2023-03-08T16:46:20.077Z,4.60
2023-03-08T16:48:54.189Z,4.60
2023-03-08T16:51:23.269Z,4.60
2023-03-08T16:53:50.266Z,4.60
2023-03-08T16:56:21.865Z,4.60
2023-03-08T16:58:48.761Z,4.60
2023-03-08T17:01:17.812Z,4.60
2023-03-08T17:03:44.980Z,4.70
2023-03-08T17:06:15.174Z,4.60
2023-03-08T17:08:42.011Z,4.60
2023-03-08T17:11:29.755Z,4.60
2023-03-08T17:14:02.135Z,4.50
2023-03-08T17:16:31.029Z,4.50
2023-03-08T17:19:02.127Z,4.50
2023-03-08T17:21:29.691Z,4.50
2023-03-08T17:23:57.293Z,4.40
2023-03-08T17:26:24.113Z,4.30
2023-03-08T17:28:53.386Z,4.30
2023-03-08T17:31:22.080Z,4.30
2023-03-08T17:33:49.339Z,4.30
2023-03-08T17:36:16.715Z,4.30
2023-03-08T17:38:43.596Z,4.20
2023-03-08T17:41:13.905Z,4.20
2023-03-08T17:43:41.467Z,4.30
2023-03-08T17:46:13.062Z,4.40
2023-03-08T17:48:39.897Z,4.40
2023-03-08T17:51:09.360Z,4.30
2023-03-08T17:53:37.589Z,4.30
2023-03-08T17:56:13.792Z,4.30
2023-03-08T17:58:41.080Z,4.30
2023-03-08T18:01:13.550Z,4.30
2023-03-08T18:03:40.693Z,4.30
2023-03-08T18:06:08.654Z,4.40
2023-03-08T18:08:36.091Z,4.40
2023-03-08T18:11:03.317Z,4.40
2023-03-08T18:13:30.004Z,4.40
2023-03-08T18:15:56.666Z,4.40
2023-03-08T18:18:23.687Z,4.40
2023-03-08T18:20:50.433Z,4.40
2023-03-08T18:23:17.049Z,4.40
2023-03-08T18:25:43.793Z,4.40
2023-03-08T18:28:11.063Z,4.40
2023-03-08T18:30:38.611Z,4.40
2023-03-08T18:33:05.393Z,4.30
2023-03-08T18:35:32.541Z,4.30
2023-03-08T18:38:00.384Z,4.30
2023-03-08T18:40:29.325Z,4.20
2023-03-08T18:42:56.594Z,4.30
2023-03-08T18:45:23.477Z,4.20
2023-03-08T18:47:51.278Z,4.20
2023-03-08T18:50:18.799Z,4.20
2023-03-08T18:52:45.684Z,4.10
2023-03-08T18:55:13.152Z,4.20
2023-03-08T18:57:39.910Z,4.20
2023-03-08T19:00:10.415Z,4.10
2023-03-08T19:02:38.197Z,4.10
2023-03-08T19:05:05.152Z,4.20
2023-03-08T19:07:31.788Z,4.20
2023-03-08T19:10:00.231Z,4.20
2023-03-08T19:12:27.788Z,4.30
2023-03-08T19:14:54.498Z,4.30
2023-03-08T19:17:21.752Z,4.30
2023-03-08T19:19:48.464Z,4.30
2023-03-08T19:22:15.425Z,4.20
2023-03-08T19:24:42.121Z,4.20
2023-03-08T19:27:09.041Z,4.30
2023-03-08T19:29:35.837Z,4.30
2023-03-08T19:32:05.884Z,4.30
2023-03-08T19:34:38.052Z,4.30
2023-03-08T19:37:06.170Z,4.30
2023-03-08T19:39:36.267Z,4.30
2023-03-08T19:42:07.232Z,4.30
2023-03-08T19:44:35.354Z,4.20
2023-03-08T19:47:03.893Z,4.20
2023-03-08T19:49:33.990Z,4.20
2023-03-08T19:52:03.058Z,4.20
2023-03-08T19:54:30.474Z,4.20
2023-03-08T19:56:58.384Z,4.30
2023-03-08T19:59:25.571Z,4.30
2023-03-08T20:01:54.028Z,4.30
2023-03-08T20:04:21.869Z,4.30
2023-03-08T20:06:49.687Z,4.30
2023-03-08T20:09:21.240Z,4.20
2023-03-08T20:11:56.496Z,4.20
2023-03-08T20:14:27.016Z,4.30
2023-03-08T20:16:53.902Z,4.20
2023-03-08T20:19:20.679Z,4.30
2023-03-08T20:21:47.354Z,4.30
2023-03-08T20:24:14.553Z,4.30
2023-03-08T20:26:41.934Z,4.30
2023-03-08T20:29:08.959Z,4.30
2023-03-08T20:31:35.662Z,4.30
2023-03-08T20:34:02.384Z,4.30
2023-03-08T20:36:29.561Z,4.30
2023-03-08T20:38:58.095Z,4.40
2023-03-08T20:41:25.387Z,4.40
2023-03-08T20:43:55.448Z,4.40
2023-03-08T20:46:26.085Z,4.50
2023-03-08T20:48:54.310Z,4.50
2023-03-08T20:51:22.383Z,4.40
2023-03-08T20:53:51.283Z,4.50
2023-03-08T20:56:20.551Z,4.40
2023-03-08T20:58:47.653Z,4.50
2023-03-08T21:01:20.795Z,4.50
2023-03-08T21:03:48.594Z,4.60
2023-03-08T21:06:21.611Z,4.50
2023-03-08T21:08:49.047Z,4.40
2023-03-08T21:11:16.689Z,4.40
2023-03-08T21:13:43.544Z,4.50
2023-03-08T21:16:13.761Z,4.50
2023-03-08T21:18:45.560Z,4.50
2023-03-08T21:21:42.662Z,4.40
2023-03-08T21:24:15.624Z,4.50
2023-03-08T21:26:42.998Z,4.50
2023-03-08T21:29:13.503Z,4.40
2023-03-08T21:31:42.768Z,4.40
2023-03-08T21:34:12.157Z,4.40
2023-03-08T21:36:39.686Z,4.50
2023-03-08T21:39:08.190Z,4.50
2023-03-08T21:41:37.858Z,4.60
2023-03-08T21:44:09.196Z,4.60
2023-03-08T21:46:37.073Z,4.60
2023-03-08T21:49:04.048Z,4.60
2023-03-08T21:51:31.926Z,4.70
2023-03-08T21:53:58.773Z,4.70
2023-03-08T21:56:25.485Z,4.60
2023-03-08T21:58:52.148Z,4.60
2023-03-08T22:01:25.027Z,4.70
2023-03-08T22:03:52.545Z,4.70
2023-03-08T22:06:19.341Z,4.70
2023-03-08T22:08:46.452Z,4.70
2023-03-08T22:11:14.489Z,4.70
2023-03-08T22:13:41.853Z,4.70
2023-03-08T22:16:08.764Z,4.70
2023-03-08T22:18:35.447Z,4.80
2023-03-08T22:21:02.151Z,4.70
2023-03-08T22:23:28.896Z,4.80
2023-03-08T22:25:55.567Z,4.70
2023-03-08T22:28:22.202Z,4.70
2023-03-08T22:30:48.888Z,4.80
2023-03-08T22:33:15.792Z,4.80
2023-03-08T22:35:47.005Z,4.80
2023-03-08T22:38:14.267Z,4.90
2023-03-08T22:40:42.354Z,4.90
2023-03-08T22:43:09.601Z,4.90
2023-03-08T22:45:36.394Z,4.90
2023-03-08T22:48:04.469Z,4.90
2023-03-08T22:50:31.143Z,4.80
2023-03-08T22:52:57.772Z,4.80
2023-03-08T22:55:24.503Z,4.80
2023-03-08T22:57:51.121Z,4.80
2023-03-08T23:00:17.901Z,4.80
2023-03-08T23:02:46.274Z,4.80
2023-03-08T23:05:15.141Z,4.80
2023-03-08T23:07:42.142Z,4.80
2023-03-08T23:10:10.542Z,4.90
2023-03-08T23:12:37.462Z,4.90
2023-03-08T23:15:05.282Z,4.90
2023-03-08T23:17:32.007Z,4.90
2023-03-08T23:19:59.011Z,5.00
2023-03-08T23:22:25.727Z,5.00
2023-03-08T23:24:52.478Z,5.00
2023-03-08T23:27:19.541Z,5.00
2023-03-08T23:29:46.171Z,5.00
2023-03-08T23:32:13.093Z,5.10
2023-03-08T23:34:39.795Z,5.10
2023-03-08T23:37:06.539Z,5.20
2023-03-08T23:39:33.961Z,5.20
2023-03-08T23:42:00.806Z,5.20
2023-03-08T23:44:27.861Z,5.20
2023-03-08T23:46:54.494Z,5.20
2023-03-08T23:49:21.234Z,5.30
2023-03-08T23:51:47.902Z,5.30
2023-03-08T23:54:15.259Z,5.30
2023-03-08T23:56:42.858Z,5.20
2023-03-08T23:59:19.163Z,5.30
